sensor_id;sensor_type;location;lat;lon;timestamp;P1;durP1;ratioP1;P2;durP2;ratioP2
69081;SDS011;56184;51.986;5.760;2022-07-29T00:00:12;5.50;;;0.98;;
69081;SDS011;56184;51.986;5.760;2022-07-29T00:02:38;4.60;;;1.10;;
69081;SDS011;56184;51.986;5.760;2022-07-29T00:05:04;2.50;;;1.10;;
69081;SDS011;56184;51.986;5.760;2022-07-29T00:07:30;4.07;;;0.93;;
69081;SDS011;56184;51.986;5.760;2022-07-29T00:09:56;3.97;;;1.27;;
69081;SDS011;56184;51.986;5.760;2022-07-29T00:12:22;2.90;;;1.05;;
69081;SDS011;56184;51.986;5.760;2022-07-29T00:14:49;5.47;;;1.10;;
69081;SDS011;56184;51.986;5.760;2022-07-29T00:17:16;2.53;;;0.90;;
69081;SDS011;56184;51.986;5.760;2022-07-29T00:19:42;3.47;;;0.90;;
69081;SDS011;56184;51.986;5.760;2022-07-29T00:22:07;7.05;;;1.40;;
69081;SDS011;56184;51.986;5.760;2022-07-29T00:24:33;3.35;;;0.98;;
69081;SDS011;56184;51.986;5.760;2022-07-29T00:26:58;5.13;;;1.42;;
69081;SDS011;56184;51.986;5.760;2022-07-29T00:29:24;3.60;;;1.23;;
69081;SDS011;56184;51.986;5.760;2022-07-29T00:31:49;4.07;;;1.17;;
69081;SDS011;56184;51.986;5.760;2022-07-29T00:34:15;3.60;;;1.15;;
69081;SDS011;56184;51.986;5.760;2022-07-29T00:36:59;4.15;;;1.10;;
69081;SDS011;56184;51.986;5.760;2022-07-29T00:39:25;2.53;;;1.00;;
69081;SDS011;56184;51.986;5.760;2022-07-29T00:41:51;2.92;;;1.00;;
69081;SDS011;56184;51.986;5.760;2022-07-29T00:44:17;4.18;;;1.00;;
69081;SDS011;56184;51.986;5.760;2022-07-29T00:46:42;8.30;;;1.30;;
69081;SDS011;56184;51.986;5.760;2022-07-29T00:49:08;6.10;;;1.10;;
69081;SDS011;56184;51.986;5.760;2022-07-29T00:51:36;2.78;;;0.80;;
69081;SDS011;56184;51.986;5.760;2022-07-29T00:54:03;2.35;;;0.93;;
69081;SDS011;56184;51.986;5.760;2022-07-29T00:56:30;5.38;;;1.00;;
69081;SDS011;56184;51.986;5.760;2022-07-29T00:58:56;2.53;;;1.00;;
69081;SDS011;56184;51.986;5.760;2022-07-29T01:01:22;4.40;;;1.15;;
69081;SDS011;56184;51.986;5.760;2022-07-29T01:03:48;5.18;;;1.00;;
69081;SDS011;56184;51.986;5.760;2022-07-29T01:06:14;4.80;;;1.17;;
69081;SDS011;56184;51.986;5.760;2022-07-29T01:08:41;2.75;;;1.00;;
69081;SDS011;56184;51.986;5.760;2022-07-29T01:11:08;4.80;;;1.10;;
69081;SDS011;56184;51.986;5.760;2022-07-29T01:13:34;2.78;;;1.13;;
69081;SDS011;56184;51.986;5.760;2022-07-29T01:16:03;3.03;;;1.02;;
69081;SDS011;56184;51.986;5.760;2022-07-29T01:18:34;4.30;;;1.05;;
69081;SDS011;56184;51.986;5.760;2022-07-29T01:30:28;2.15;;;0.85;;
69081;SDS011;56184;51.986;5.760;2022-07-29T01:32:59;2.33;;;0.90;;
69081;SDS011;56184;51.986;5.760;2022-07-29T01:35:32;2.10;;;1.00;;
69081;SDS011;56184;51.986;5.760;2022-07-29T01:38:05;4.60;;;1.17;;
69081;SDS011;56184;51.986;5.760;2022-07-29T01:40:35;6.65;;;1.15;;
69081;SDS011;56184;51.986;5.760;2022-07-29T01:43:13;3.88;;;1.10;;
69081;SDS011;56184;51.986;5.760;2022-07-29T01:48:30;5.20;;;1.17;;
69081;SDS011;56184;51.986;5.760;2022-07-29T01:51:12;4.20;;;1.15;;
69081;SDS011;56184;51.986;5.760;2022-07-29T01:53:54;3.22;;;1.13;;
69081;SDS011;56184;51.986;5.760;2022-07-29T01:56:26;6.03;;;1.00;;
69081;SDS011;56184;51.986;5.760;2022-07-29T01:58:55;2.85;;;1.05;;
69081;SDS011;56184;51.986;5.760;2022-07-29T02:01:22;5.70;;;1.20;;
69081;SDS011;56184;51.986;5.760;2022-07-29T02:03:50;0.82;;;0.80;;
69081;SDS011;56184;51.986;5.760;2022-07-29T02:06:19;4.13;;;1.40;;
69081;SDS011;56184;51.986;5.760;2022-07-29T02:08:46;3.90;;;1.33;;
69081;SDS011;56184;51.986;5.760;2022-07-29T02:11:14;1.90;;;1.10;;
69081;SDS011;56184;51.986;5.760;2022-07-29T02:13:40;4.10;;;1.13;;
69081;SDS011;56184;51.986;5.760;2022-07-29T02:16:08;2.60;;;1.20;;
69081;SDS011;56184;51.986;5.760;2022-07-29T02:18:39;3.65;;;1.23;;
69081;SDS011;56184;51.986;5.760;2022-07-29T02:21:06;4.40;;;1.52;;
69081;SDS011;56184;51.986;5.760;2022-07-29T02:23:33;4.00;;;1.60;;
69081;SDS011;56184;51.986;5.760;2022-07-29T02:26:02;3.05;;;1.15;;
69081;SDS011;56184;51.986;5.760;2022-07-29T02:28:28;5.90;;;1.45;;
69081;SDS011;56184;51.986;5.760;2022-07-29T02:30:56;4.32;;;1.30;;
69081;SDS011;56184;51.986;5.760;2022-07-29T02:33:25;3.65;;;1.20;;
69081;SDS011;56184;51.986;5.760;2022-07-29T02:35:51;5.45;;;1.30;;
69081;SDS011;56184;51.986;5.760;2022-07-29T02:38:18;4.18;;;1.30;;
69081;SDS011;56184;51.986;5.760;2022-07-29T02:41:08;3.45;;;1.30;;
69081;SDS011;56184;51.986;5.760;2022-07-29T02:43:40;4.40;;;1.30;;
69081;SDS011;56184;51.986;5.760;2022-07-29T02:46:08;6.15;;;1.70;;
69081;SDS011;56184;51.986;5.760;2022-07-29T02:48:41;9.18;;;1.70;;
69081;SDS011;56184;51.986;5.760;2022-07-29T02:51:23;3.63;;;1.60;;
69081;SDS011;56184;51.986;5.760;2022-07-29T02:53:54;2.97;;;1.33;;
69081;SDS011;56184;51.986;5.760;2022-07-29T02:56:23;4.35;;;1.65;;
69081;SDS011;56184;51.986;5.760;2022-07-29T02:58:56;4.63;;;1.63;;
69081;SDS011;56184;51.986;5.760;2022-07-29T03:01:25;5.80;;;1.43;;
69081;SDS011;56184;51.986;5.760;2022-07-29T03:03:56;2.63;;;1.50;;
69081;SDS011;56184;51.986;5.760;2022-07-29T03:06:25;3.60;;;1.58;;
69081;SDS011;56184;51.986;5.760;2022-07-29T03:08:53;3.80;;;1.55;;
69081;SDS011;56184;51.986;5.760;2022-07-29T03:11:25;2.42;;;1.38;;
69081;SDS011;56184;51.986;5.760;2022-07-29T03:13:51;3.50;;;1.70;;
69081;SDS011;56184;51.986;5.760;2022-07-29T03:16:19;5.72;;;1.80;;
69081;SDS011;56184;51.986;5.760;2022-07-29T03:18:45;5.30;;;1.73;;
69081;SDS011;56184;51.986;5.760;2022-07-29T03:21:11;2.47;;;1.60;;
69081;SDS011;56184;51.986;5.760;2022-07-29T03:23:36;3.60;;;1.80;;
69081;SDS011;56184;51.986;5.760;2022-07-29T03:26:09;4.88;;;2.00;;
69081;SDS011;56184;51.986;5.760;2022-07-29T03:28:35;5.75;;;1.60;;
69081;SDS011;56184;51.986;5.760;2022-07-29T03:31:00;4.47;;;1.90;;
69081;SDS011;56184;51.986;5.760;2022-07-29T03:33:26;2.53;;;1.65;;
69081;SDS011;56184;51.986;5.760;2022-07-29T03:35:53;4.40;;;1.80;;
69081;SDS011;56184;51.986;5.760;2022-07-29T03:38:19;4.47;;;1.70;;
69081;SDS011;56184;51.986;5.760;2022-07-29T03:40:52;3.67;;;2.03;;
69081;SDS011;56184;51.986;5.760;2022-07-29T03:43:21;4.53;;;1.98;;
69081;SDS011;56184;51.986;5.760;2022-07-29T03:45:51;4.47;;;1.98;;
69081;SDS011;56184;51.986;5.760;2022-07-29T03:48:21;2.95;;;1.73;;
69081;SDS011;56184;51.986;5.760;2022-07-29T03:50:49;7.53;;;1.98;;
69081;SDS011;56184;51.986;5.760;2022-07-29T03:53:16;3.25;;;1.77;;
69081;SDS011;56184;51.986;5.760;2022-07-29T03:55:47;5.95;;;1.92;;
69081;SDS011;56184;51.986;5.760;2022-07-29T03:58:17;8.00;;;2.25;;
69081;SDS011;56184;51.986;5.760;2022-07-29T04:00:44;4.82;;;2.05;;
69081;SDS011;56184;51.986;5.760;2022-07-29T04:03:10;3.58;;;1.77;;
69081;SDS011;56184;51.986;5.760;2022-07-29T04:05:36;2.22;;;1.70;;
69081;SDS011;56184;51.986;5.760;2022-07-29T04:08:02;3.08;;;1.90;;
69081;SDS011;56184;51.986;5.760;2022-07-29T04:10:28;2.78;;;1.80;;
69081;SDS011;56184;51.986;5.760;2022-07-29T04:12:53;4.20;;;2.03;;
69081;SDS011;56184;51.986;5.760;2022-07-29T04:15:19;2.13;;;1.60;;
69081;SDS011;56184;51.986;5.760;2022-07-29T04:17:45;6.22;;;2.00;;
69081;SDS011;56184;51.986;5.760;2022-07-29T04:20:10;6.65;;;2.08;;
69081;SDS011;56184;51.986;5.760;2022-07-29T04:22:40;5.88;;;2.10;;
69081;SDS011;56184;51.986;5.760;2022-07-29T04:25:06;3.28;;;1.90;;
69081;SDS011;56184;51.986;5.760;2022-07-29T04:27:31;5.43;;;2.05;;
69081;SDS011;56184;51.986;5.760;2022-07-29T04:29:57;6.45;;;2.22;;
69081;SDS011;56184;51.986;5.760;2022-07-29T04:32:23;6.53;;;1.92;;
69081;SDS011;56184;51.986;5.760;2022-07-29T04:34:49;6.45;;;1.88;;
69081;SDS011;56184;51.986;5.760;2022-07-29T04:37:15;3.22;;;1.80;;
69081;SDS011;56184;51.986;5.760;2022-07-29T04:39:41;7.55;;;2.33;;
69081;SDS011;56184;51.986;5.760;2022-07-29T04:42:06;7.28;;;2.00;;
69081;SDS011;56184;51.986;5.760;2022-07-29T04:44:32;2.92;;;1.80;;
69081;SDS011;56184;51.986;5.760;2022-07-29T04:46:57;3.92;;;2.10;;
69081;SDS011;56184;51.986;5.760;2022-07-29T04:49:23;5.38;;;2.03;;
69081;SDS011;56184;51.986;5.760;2022-07-29T04:51:49;3.60;;;2.00;;
69081;SDS011;56184;51.986;5.760;2022-07-29T04:54:15;5.07;;;2.17;;
69081;SDS011;56184;51.986;5.760;2022-07-29T04:56:40;3.28;;;1.83;;
69081;SDS011;56184;51.986;5.760;2022-07-29T04:59:06;7.43;;;2.00;;
69081;SDS011;56184;51.986;5.760;2022-07-29T05:01:32;10.52;;;2.47;;
69081;SDS011;56184;51.986;5.760;2022-07-29T05:04:01;4.88;;;2.10;;
69081;SDS011;56184;51.986;5.760;2022-07-29T05:07:04;7.05;;;1.95;;
69081;SDS011;56184;51.986;5.760;2022-07-29T05:09:40;6.38;;;2.20;;
69081;SDS011;56184;51.986;5.760;2022-07-29T05:13:00;5.00;;;2.17;;
69081;SDS011;56184;51.986;5.760;2022-07-29T05:15:49;2.22;;;1.85;;
69081;SDS011;56184;51.986;5.760;2022-07-29T05:18:49;4.68;;;2.15;;
69081;SDS011;56184;51.986;5.760;2022-07-29T05:23:45;7.80;;;2.33;;
69081;SDS011;56184;51.986;5.760;2022-07-29T05:26:19;4.00;;;2.20;;
69081;SDS011;56184;51.986;5.760;2022-07-29T05:28:51;9.40;;;2.40;;
69081;SDS011;56184;51.986;5.760;2022-07-29T05:31:40;3.47;;;1.88;;
69081;SDS011;56184;51.986;5.760;2022-07-29T05:34:18;4.72;;;2.03;;
69081;SDS011;56184;51.986;5.760;2022-07-29T05:37:02;4.18;;;1.90;;
69081;SDS011;56184;51.986;5.760;2022-07-29T05:39:36;4.60;;;2.00;;
69081;SDS011;56184;51.986;5.760;2022-07-29T05:42:39;7.18;;;2.00;;
69081;SDS011;56184;51.986;5.760;2022-07-29T05:45:25;4.78;;;2.05;;
69081;SDS011;56184;51.986;5.760;2022-07-29T05:48:10;6.63;;;2.17;;
69081;SDS011;56184;51.986;5.760;2022-07-29T05:50:39;3.28;;;1.80;;
69081;SDS011;56184;51.986;5.760;2022-07-29T05:53:05;7.43;;;2.17;;
69081;SDS011;56184;51.986;5.760;2022-07-29T05:55:31;5.55;;;2.38;;
69081;SDS011;56184;51.986;5.760;2022-07-29T05:57:56;3.65;;;1.90;;
69081;SDS011;56184;51.986;5.760;2022-07-29T06:00:22;10.45;;;2.20;;
69081;SDS011;56184;51.986;5.760;2022-07-29T06:02:47;2.28;;;1.83;;
69081;SDS011;56184;51.986;5.760;2022-07-29T06:05:13;3.33;;;2.00;;
69081;SDS011;56184;51.986;5.760;2022-07-29T06:07:40;6.75;;;2.00;;
69081;SDS011;56184;51.986;5.760;2022-07-29T06:10:05;3.55;;;1.88;;
69081;SDS011;56184;51.986;5.760;2022-07-29T06:12:31;2.05;;;1.80;;
69081;SDS011;56184;51.986;5.760;2022-07-29T06:14:57;4.03;;;2.05;;
69081;SDS011;56184;51.986;5.760;2022-07-29T06:17:23;3.92;;;2.20;;
69081;SDS011;56184;51.986;5.760;2022-07-29T06:19:48;2.53;;;1.73;;
69081;SDS011;56184;51.986;5.760;2022-07-29T06:22:15;5.55;;;2.03;;
69081;SDS011;56184;51.986;5.760;2022-07-29T06:24:41;3.80;;;2.20;;
69081;SDS011;56184;51.986;5.760;2022-07-29T06:27:09;3.10;;;1.90;;
69081;SDS011;56184;51.986;5.760;2022-07-29T06:29:37;3.03;;;1.92;;
69081;SDS011;56184;51.986;5.760;2022-07-29T06:32:03;4.15;;;2.00;;
69081;SDS011;56184;51.986;5.760;2022-07-29T06:34:29;4.72;;;1.95;;
69081;SDS011;56184;51.986;5.760;2022-07-29T06:36:54;2.13;;;1.60;;
69081;SDS011;56184;51.986;5.760;2022-07-29T06:39:20;7.18;;;2.10;;
69081;SDS011;56184;51.986;5.760;2022-07-29T06:41:46;4.30;;;1.80;;
69081;SDS011;56184;51.986;5.760;2022-07-29T06:44:14;7.13;;;1.90;;
69081;SDS011;56184;51.986;5.760;2022-07-29T06:46:40;8.20;;;2.13;;
69081;SDS011;56184;51.986;5.760;2022-07-29T06:49:08;4.05;;;1.85;;
69081;SDS011;56184;51.986;5.760;2022-07-29T06:51:36;7.13;;;1.90;;
69081;SDS011;56184;51.986;5.760;2022-07-29T06:54:01;4.30;;;1.95;;
69081;SDS011;56184;51.986;5.760;2022-07-29T06:56:33;3.47;;;1.65;;
69081;SDS011;56184;51.986;5.760;2022-07-29T06:59:02;4.82;;;2.20;;
69081;SDS011;56184;51.986;5.760;2022-07-29T07:01:29;4.75;;;1.98;;
69081;SDS011;56184;51.986;5.760;2022-07-29T07:03:55;6.60;;;2.35;;
69081;SDS011;56184;51.986;5.760;2022-07-29T07:06:21;6.38;;;1.85;;
69081;SDS011;56184;51.986;5.760;2022-07-29T07:08:46;7.00;;;2.00;;
69081;SDS011;56184;51.986;5.760;2022-07-29T07:11:12;3.22;;;1.92;;
69081;SDS011;56184;51.986;5.760;2022-07-29T07:13:38;3.58;;;1.95;;
69081;SDS011;56184;51.986;5.760;2022-07-29T07:16:03;10.32;;;2.05;;
69081;SDS011;56184;51.986;5.760;2022-07-29T07:18:29;7.45;;;1.95;;
69081;SDS011;56184;51.986;5.760;2022-07-29T07:20:55;3.47;;;2.00;;
69081;SDS011;56184;51.986;5.760;2022-07-29T07:23:21;9.13;;;2.20;;
69081;SDS011;56184;51.986;5.760;2022-07-29T07:25:47;7.95;;;2.08;;
69081;SDS011;56184;51.986;5.760;2022-07-29T07:28:13;4.15;;;2.20;;
69081;SDS011;56184;51.986;5.760;2022-07-29T07:30:39;4.90;;;1.80;;
69081;SDS011;56184;51.986;5.760;2022-07-29T07:33:05;3.95;;;1.70;;
69081;SDS011;56184;51.986;5.760;2022-07-29T07:35:30;7.55;;;2.25;;
69081;SDS011;56184;51.986;5.760;2022-07-29T07:37:56;3.58;;;2.03;;
69081;SDS011;56184;51.986;5.760;2022-07-29T07:40:22;5.55;;;1.83;;
69081;SDS011;56184;51.986;5.760;2022-07-29T07:42:49;3.38;;;1.80;;
69081;SDS011;56184;51.986;5.760;2022-07-29T07:45:14;9.07;;;1.95;;
69081;SDS011;56184;51.986;5.760;2022-07-29T07:47:40;5.45;;;1.83;;
69081;SDS011;56184;51.986;5.760;2022-07-29T07:50:07;3.22;;;1.75;;
69081;SDS011;56184;51.986;5.760;2022-07-29T07:52:35;6.30;;;2.08;;
69081;SDS011;56184;51.986;5.760;2022-07-29T07:55:14;3.05;;;1.80;;
69081;SDS011;56184;51.986;5.760;2022-07-29T07:57:40;4.78;;;1.70;;
69081;SDS011;56184;51.986;5.760;2022-07-29T08:00:06;3.95;;;2.30;;
69081;SDS011;56184;51.986;5.760;2022-07-29T08:02:32;4.22;;;1.95;;
69081;SDS011;56184;51.986;5.760;2022-07-29T08:04:57;5.00;;;1.90;;
69081;SDS011;56184;51.986;5.760;2022-07-29T08:07:24;6.05;;;1.67;;
69081;SDS011;56184;51.986;5.760;2022-07-29T08:09:50;3.17;;;1.80;;
69081;SDS011;56184;51.986;5.760;2022-07-29T08:12:15;4.40;;;1.70;;
69081;SDS011;56184;51.986;5.760;2022-07-29T08:14:41;5.00;;;1.58;;
69081;SDS011;56184;51.986;5.760;2022-07-29T08:17:06;3.83;;;1.70;;
69081;SDS011;56184;51.986;5.760;2022-07-29T08:19:34;3.47;;;1.90;;
69081;SDS011;56184;51.986;5.760;2022-07-29T08:22:17;7.32;;;1.88;;
69081;SDS011;56184;51.986;5.760;2022-07-29T08:24:42;4.13;;;1.77;;
69081;SDS011;56184;51.986;5.760;2022-07-29T08:27:09;3.25;;;1.50;;
69081;SDS011;56184;51.986;5.760;2022-07-29T08:29:35;4.20;;;1.80;;
69081;SDS011;56184;51.986;5.760;2022-07-29T08:32:03;6.15;;;1.88;;
69081;SDS011;56184;51.986;5.760;2022-07-29T08:34:30;2.30;;;1.70;;
69081;SDS011;56184;51.986;5.760;2022-07-29T08:36:56;5.55;;;1.70;;
69081;SDS011;56184;51.986;5.760;2022-07-29T08:39:22;3.38;;;1.60;;
69081;SDS011;56184;51.986;5.760;2022-07-29T08:41:48;2.92;;;1.73;;
69081;SDS011;56184;51.986;5.760;2022-07-29T08:44:20;4.18;;;1.58;;
69081;SDS011;56184;51.986;5.760;2022-07-29T08:46:47;4.03;;;1.40;;
69081;SDS011;56184;51.986;5.760;2022-07-29T08:49:14;7.38;;;1.70;;
69081;SDS011;56184;51.986;5.760;2022-07-29T08:51:45;6.40;;;1.70;;
69081;SDS011;56184;51.986;5.760;2022-07-29T08:54:11;6.82;;;1.55;;
69081;SDS011;56184;51.986;5.760;2022-07-29T08:56:41;4.95;;;1.38;;
69081;SDS011;56184;51.986;5.760;2022-07-29T08:59:06;3.60;;;1.70;;
69081;SDS011;56184;51.986;5.760;2022-07-29T09:01:34;4.60;;;1.60;;
69081;SDS011;56184;51.986;5.760;2022-07-29T09:04:03;4.85;;;1.48;;
69081;SDS011;56184;51.986;5.760;2022-07-29T09:06:32;5.15;;;1.40;;
69081;SDS011;56184;51.986;5.760;2022-07-29T09:09:01;3.20;;;1.30;;
69081;SDS011;56184;51.986;5.760;2022-07-29T09:11:28;5.35;;;1.50;;
69081;SDS011;56184;51.986;5.760;2022-07-29T09:13:54;5.95;;;1.55;;
69081;SDS011;56184;51.986;5.760;2022-07-29T09:16:20;4.78;;;1.40;;
69081;SDS011;56184;51.986;5.760;2022-07-29T09:18:45;6.15;;;1.48;;
69081;SDS011;56184;51.986;5.760;2022-07-29T09:21:14;6.00;;;1.55;;
69081;SDS011;56184;51.986;5.760;2022-07-29T09:24:10;3.25;;;1.58;;
69081;SDS011;56184;51.986;5.760;2022-07-29T09:26:42;3.95;;;1.67;;
69081;SDS011;56184;51.986;5.760;2022-07-29T09:29:13;3.05;;;1.50;;
69081;SDS011;56184;51.986;5.760;2022-07-29T09:31:44;6.18;;;1.80;;
69081;SDS011;56184;51.986;5.760;2022-07-29T09:34:12;4.25;;;2.10;;
69081;SDS011;56184;51.986;5.760;2022-07-29T09:36:40;3.08;;;1.73;;
69081;SDS011;56184;51.986;5.760;2022-07-29T09:39:07;5.63;;;1.83;;
69081;SDS011;56184;51.986;5.760;2022-07-29T09:41:49;7.20;;;1.73;;
69081;SDS011;56184;51.986;5.760;2022-07-29T09:44:19;4.30;;;1.65;;
69081;SDS011;56184;51.986;5.760;2022-07-29T09:46:54;6.35;;;1.75;;
69081;SDS011;56184;51.986;5.760;2022-07-29T09:49:30;5.57;;;1.65;;
69081;SDS011;56184;51.986;5.760;2022-07-29T09:52:03;5.03;;;1.90;;
69081;SDS011;56184;51.986;5.760;2022-07-29T09:54:34;3.15;;;1.52;;
69081;SDS011;56184;51.986;5.760;2022-07-29T09:57:04;8.75;;;1.70;;
69081;SDS011;56184;51.986;5.760;2022-07-29T09:59:32;5.45;;;1.50;;
69081;SDS011;56184;51.986;5.760;2022-07-29T10:01:59;5.93;;;1.60;;
69081;SDS011;56184;51.986;5.760;2022-07-29T10:04:40;8.60;;;1.70;;
69081;SDS011;56184;51.986;5.760;2022-07-29T10:07:07;5.03;;;1.50;;
69081;SDS011;56184;51.986;5.760;2022-07-29T10:09:33;6.57;;;1.73;;
69081;SDS011;56184;51.986;5.760;2022-07-29T10:12:10;7.03;;;1.63;;
69081;SDS011;56184;51.986;5.760;2022-07-29T10:14:41;3.00;;;1.42;;
69081;SDS011;56184;51.986;5.760;2022-07-29T10:17:07;4.38;;;1.80;;
69081;SDS011;56184;51.986;5.760;2022-07-29T10:19:35;4.13;;;1.80;;
69081;SDS011;56184;51.986;5.760;2022-07-29T10:22:03;2.97;;;1.60;;
69081;SDS011;56184;51.986;5.760;2022-07-29T10:24:31;3.67;;;1.60;;
69081;SDS011;56184;51.986;5.760;2022-07-29T10:26:59;3.72;;;1.30;;
69081;SDS011;56184;51.986;5.760;2022-07-29T10:29:26;4.15;;;1.42;;
69081;SDS011;56184;51.986;5.760;2022-07-29T10:32:10;5.40;;;1.58;;
69081;SDS011;56184;51.986;5.760;2022-07-29T10:34:57;8.63;;;1.48;;
69081;SDS011;56184;51.986;5.760;2022-07-29T10:41:03;2.75;;;1.15;;
69081;SDS011;56184;51.986;5.760;2022-07-29T10:43:52;3.40;;;1.20;;
69081;SDS011;56184;51.986;5.760;2022-07-29T10:46:34;4.18;;;1.30;;
69081;SDS011;56184;51.986;5.760;2022-07-29T10:49:04;4.20;;;1.33;;
69081;SDS011;56184;51.986;5.760;2022-07-29T10:54:19;5.07;;;1.50;;
69081;SDS011;56184;51.986;5.760;2022-07-29T10:59:46;8.50;;;1.48;;
69081;SDS011;56184;51.986;5.760;2022-07-29T11:05:11;5.18;;;1.42;;
69081;SDS011;56184;51.986;5.760;2022-07-29T11:07:40;6.20;;;1.42;;
69081;SDS011;56184;51.986;5.760;2022-07-29T11:10:25;3.90;;;1.08;;
69081;SDS011;56184;51.986;5.760;2022-07-29T11:12:51;3.58;;;1.33;;
69081;SDS011;56184;51.986;5.760;2022-07-29T11:15:18;6.97;;;1.30;;
69081;SDS011;56184;51.986;5.760;2022-07-29T11:20:41;3.90;;;1.10;;
69081;SDS011;56184;51.986;5.760;2022-07-29T11:31:40;3.75;;;1.10;;
69081;SDS011;56184;51.986;5.760;2022-07-29T11:34:26;3.28;;;1.00;;
69081;SDS011;56184;51.986;5.760;2022-07-29T11:39:37;9.15;;;1.40;;
69081;SDS011;56184;51.986;5.760;2022-07-29T11:45:04;10.98;;;1.25;;
69081;SDS011;56184;51.986;5.760;2022-07-29T11:47:33;5.38;;;1.08;;
69081;SDS011;56184;51.986;5.760;2022-07-29T11:50:01;6.55;;;1.20;;
69081;SDS011;56184;51.986;5.760;2022-07-29T11:52:32;7.75;;;1.15;;
69081;SDS011;56184;51.986;5.760;2022-07-29T11:55:05;3.85;;;1.15;;
69081;SDS011;56184;51.986;5.760;2022-07-29T11:57:31;4.50;;;1.20;;
69081;SDS011;56184;51.986;5.760;2022-07-29T12:00:01;4.18;;;1.27;;
69081;SDS011;56184;51.986;5.760;2022-07-29T12:02:40;3.10;;;1.00;;
69081;SDS011;56184;51.986;5.760;2022-07-29T12:05:14;4.32;;;1.10;;
69081;SDS011;56184;51.986;5.760;2022-07-29T12:07:45;3.90;;;1.10;;
69081;SDS011;56184;51.986;5.760;2022-07-29T12:10:45;4.05;;;1.23;;
69081;SDS011;56184;51.986;5.760;2022-07-29T12:13:13;4.35;;;1.17;;
69081;SDS011;56184;51.986;5.760;2022-07-29T12:15:40;4.97;;;1.17;;
69081;SDS011;56184;51.986;5.760;2022-07-29T12:18:16;6.68;;;1.55;;
69081;SDS011;56184;51.986;5.760;2022-07-29T12:20:43;4.70;;;1.10;;
69081;SDS011;56184;51.986;5.760;2022-07-29T12:23:10;3.40;;;1.13;;
69081;SDS011;56184;51.986;5.760;2022-07-29T12:25:40;2.75;;;1.27;;
69081;SDS011;56184;51.986;5.760;2022-07-29T12:28:09;3.95;;;1.00;;
69081;SDS011;56184;51.986;5.760;2022-07-29T12:33:10;5.53;;;1.40;;
69081;SDS011;56184;51.986;5.760;2022-07-29T12:35:37;3.42;;;1.10;;
69081;SDS011;56184;51.986;5.760;2022-07-29T12:38:03;2.13;;;1.02;;
69081;SDS011;56184;51.986;5.760;2022-07-29T12:40:29;5.85;;;1.15;;
69081;SDS011;56184;51.986;5.760;2022-07-29T12:43:04;6.25;;;1.20;;
69081;SDS011;56184;51.986;5.760;2022-07-29T12:45:39;2.65;;;0.80;;
69081;SDS011;56184;51.986;5.760;2022-07-29T12:48:06;4.05;;;1.20;;
69081;SDS011;56184;51.986;5.760;2022-07-29T12:50:34;5.07;;;1.40;;
69081;SDS011;56184;51.986;5.760;2022-07-29T12:53:17;2.97;;;1.10;;
69081;SDS011;56184;51.986;5.760;2022-07-29T12:55:44;2.13;;;1.10;;
69081;SDS011;56184;51.986;5.760;2022-07-29T12:58:14;3.50;;;1.10;;
69081;SDS011;56184;51.986;5.760;2022-07-29T13:01:02;5.97;;;1.23;;
69081;SDS011;56184;51.986;5.760;2022-07-29T13:06:31;3.25;;;1.30;;
69081;SDS011;56184;51.986;5.760;2022-07-29T13:09:04;4.25;;;1.10;;
69081;SDS011;56184;51.986;5.760;2022-07-29T13:11:49;6.13;;;1.00;;
69081;SDS011;56184;51.986;5.760;2022-07-29T13:14:32;3.85;;;1.00;;
69081;SDS011;56184;51.986;5.760;2022-07-29T13:17:07;3.33;;;1.08;;
69081;SDS011;56184;51.986;5.760;2022-07-29T13:19:37;3.25;;;1.05;;
69081;SDS011;56184;51.986;5.760;2022-07-29T13:22:08;2.67;;;1.00;;
69081;SDS011;56184;51.986;5.760;2022-07-29T13:24:44;4.88;;;1.00;;
69081;SDS011;56184;51.986;5.760;2022-07-29T13:27:11;3.15;;;1.02;;
69081;SDS011;56184;51.986;5.760;2022-07-29T13:29:36;3.88;;;1.08;;
69081;SDS011;56184;51.986;5.760;2022-07-29T13:32:05;5.00;;;1.10;;
69081;SDS011;56184;51.986;5.760;2022-07-29T13:34:30;4.05;;;1.20;;
69081;SDS011;56184;51.986;5.760;2022-07-29T13:36:56;2.88;;;1.20;;
69081;SDS011;56184;51.986;5.760;2022-07-29T13:39:22;2.35;;;1.00;;
69081;SDS011;56184;51.986;5.760;2022-07-29T13:41:47;2.83;;;1.27;;
69081;SDS011;56184;51.986;5.760;2022-07-29T13:44:13;4.03;;;0.93;;
69081;SDS011;56184;51.986;5.760;2022-07-29T13:46:38;2.55;;;1.00;;
69081;SDS011;56184;51.986;5.760;2022-07-29T13:49:04;6.45;;;1.20;;
69081;SDS011;56184;51.986;5.760;2022-07-29T13:51:30;4.85;;;1.10;;
69081;SDS011;56184;51.986;5.760;2022-07-29T13:53:55;2.80;;;1.00;;
69081;SDS011;56184;51.986;5.760;2022-07-29T13:56:21;7.93;;;1.05;;
69081;SDS011;56184;51.986;5.760;2022-07-29T13:58:47;4.65;;;1.17;;
69081;SDS011;56184;51.986;5.760;2022-07-29T14:01:12;2.38;;;1.13;;
69081;SDS011;56184;51.986;5.760;2022-07-29T14:03:38;3.97;;;1.10;;
69081;SDS011;56184;51.986;5.760;2022-07-29T14:06:06;4.03;;;1.20;;
69081;SDS011;56184;51.986;5.760;2022-07-29T14:08:32;2.15;;;0.90;;
69081;SDS011;56184;51.986;5.760;2022-07-29T14:10:57;4.93;;;1.10;;
69081;SDS011;56184;51.986;5.760;2022-07-29T14:13:23;6.53;;;0.95;;
69081;SDS011;56184;51.986;5.760;2022-07-29T14:15:49;4.65;;;1.27;;
69081;SDS011;56184;51.986;5.760;2022-07-29T14:18:14;2.25;;;1.15;;
69081;SDS011;56184;51.986;5.760;2022-07-29T14:20:40;5.70;;;1.30;;
69081;SDS011;56184;51.986;5.760;2022-07-29T14:23:05;1.75;;;1.00;;
69081;SDS011;56184;51.986;5.760;2022-07-29T14:25:32;3.10;;;1.23;;
69081;SDS011;56184;51.986;5.760;2022-07-29T14:27:57;4.35;;;1.23;;
69081;SDS011;56184;51.986;5.760;2022-07-29T14:30:23;4.03;;;1.20;;
69081;SDS011;56184;51.986;5.760;2022-07-29T14:32:48;4.00;;;1.30;;
69081;SDS011;56184;51.986;5.760;2022-07-29T14:35:14;8.80;;;1.60;;
69081;SDS011;56184;51.986;5.760;2022-07-29T14:37:40;3.85;;;1.30;;
69081;SDS011;56184;51.986;5.760;2022-07-29T14:40:06;3.95;;;1.30;;
69081;SDS011;56184;51.986;5.760;2022-07-29T14:42:32;5.78;;;1.70;;
69081;SDS011;56184;51.986;5.760;2022-07-29T14:44:58;9.50;;;1.60;;
69081;SDS011;56184;51.986;5.760;2022-07-29T14:47:24;8.45;;;1.20;;
69081;SDS011;56184;51.986;5.760;2022-07-29T14:49:49;4.15;;;1.20;;
69081;SDS011;56184;51.986;5.760;2022-07-29T14:52:15;3.05;;;1.30;;
69081;SDS011;56184;51.986;5.760;2022-07-29T14:54:40;4.50;;;1.50;;
69081;SDS011;56184;51.986;5.760;2022-07-29T14:57:06;2.50;;;1.27;;
69081;SDS011;56184;51.986;5.760;2022-07-29T14:59:32;6.55;;;1.70;;
69081;SDS011;56184;51.986;5.760;2022-07-29T15:01:57;6.65;;;1.50;;
69081;SDS011;56184;51.986;5.760;2022-07-29T15:04:23;4.85;;;1.50;;
69081;SDS011;56184;51.986;5.760;2022-07-29T15:06:49;4.78;;;1.27;;
69081;SDS011;56184;51.986;5.760;2022-07-29T15:09:15;4.93;;;1.35;;
69081;SDS011;56184;51.986;5.760;2022-07-29T15:11:40;7.15;;;1.33;;
69081;SDS011;56184;51.986;5.760;2022-07-29T15:14:10;3.40;;;1.50;;
69081;SDS011;56184;51.986;5.760;2022-07-29T15:16:36;5.72;;;1.40;;
69081;SDS011;56184;51.986;5.760;2022-07-29T15:19:07;9.07;;;1.80;;
69081;SDS011;56184;51.986;5.760;2022-07-29T15:21:33;6.22;;;1.27;;
69081;SDS011;56184;51.986;5.760;2022-07-29T15:23:58;5.10;;;1.60;;
69081;SDS011;56184;51.986;5.760;2022-07-29T15:26:24;5.38;;;1.42;;
69081;SDS011;56184;51.986;5.760;2022-07-29T15:28:50;6.20;;;1.65;;
69081;SDS011;56184;51.986;5.760;2022-07-29T15:31:15;5.55;;;1.63;;
69081;SDS011;56184;51.986;5.760;2022-07-29T15:33:43;6.85;;;1.65;;
69081;SDS011;56184;51.986;5.760;2022-07-29T15:36:10;7.80;;;1.25;;
69081;SDS011;56184;51.986;5.760;2022-07-29T15:38:39;5.90;;;1.70;;
69081;SDS011;56184;51.986;5.760;2022-07-29T15:41:05;9.65;;;1.50;;
69081;SDS011;56184;51.986;5.760;2022-07-29T15:43:31;9.38;;;1.88;;
69081;SDS011;56184;51.986;5.760;2022-07-29T15:46:02;4.65;;;1.60;;
69081;SDS011;56184;51.986;5.760;2022-07-29T15:48:46;5.85;;;1.30;;